Time;durP1;ratioP1;P1;durP2;ratioP2;P2;SDS_P1;SDS_P2;PMS_P1;PMS_P2;Temp;Humidity;BMP_temperature;BMP_pressure;BME280_temperature;BME280_humidity;BME280_pressure;Samples;Min_cycle;Max_cycle;Signal;HPM_P1;HPM_P2
2021/08/29 00:00:11;;;;;;;14.40;5.13;;;17.10;99.90;;;;;;5075785;28;19991;-78
2021/08/29 00:02:37;;;;;;;16.23;5.68;;;17.00;99.90;;;;;;5075524;28;20104;-78
2021/08/29 00:05:03;;;;;;;;;;;16.80;99.90;;;;;;5076455;28;20055;-78
2021/08/29 00:07:29;;;;;;;13.07;5.15;;;16.60;99.90;;;;;;5075742;28;19987;-77
2021/08/29 00:09:54;;;;;;;;;;;16.80;99.90;;;;;;5076034;28;20043;-78
2021/08/29 00:12:20;;;;;;;13.00;4.80;;;17.00;99.90;;;;;;5075606;28;19904;-78
2021/08/29 00:14:45;;;;;;;;;;;16.90;99.90;;;;;;5076219;28;20027;-78
2021/08/29 00:17:11;;;;;;;16.08;5.30;;;17.00;99.90;;;;;;5075546;28;19970;-79
2021/08/29 00:19:37;;;;;;;;;;;16.80;99.90;;;;;;5076021;28;20419;-77
2021/08/29 00:22:03;;;;;;;12.68;4.55;;;16.60;99.90;;;;;;5075419;28;19904;-77
2021/08/29 00:24:29;;;;;;;12.85;4.63;;;16.60;99.90;;;;;;5075288;28;20120;-77
2021/08/29 00:26:55;;;;;;;;;;;16.60;99.90;;;;;;5074443;28;20467;-77
2021/08/29 00:29:21;;;;;;;12.98;5.05;;;16.30;99.90;;;;;;5075236;28;19910;-78
2021/08/29 00:31:46;;;;;;;;;;;16.10;99.90;;;;;;5075575;28;20020;-78
2021/08/29 00:34:12;;;;;;;15.05;5.97;;;16.00;99.90;;;;;;5075363;28;19904;-78
2021/08/29 00:36:38;;;;;;;10.45;4.70;;;16.10;99.90;;;;;;5075186;28;20020;-78
2021/08/29 00:39:04;;;;;;;14.23;5.28;;;16.20;99.90;;;;;;5074515;28;20025;-78
2021/08/29 00:41:29;;;;;;;13.45;5.65;;;16.10;99.90;;;;;;5074995;28;20028;-78
2021/08/29 00:43:56;;;;;;;13.48;5.07;;;16.00;99.90;;;;;;5075044;28;20063;-77
2021/08/29 00:46:22;;;;;;;10.38;4.55;;;16.20;99.90;;;;;;5075161;28;20027;-77
2021/08/29 00:48:49;;;;;;;;;;;16.50;99.90;;;;;;5075361;28;20388;-78
2021/08/29 00:51:15;;;;;;;14.65;5.88;;;16.60;99.90;;;;;;5074775;28;19908;-78
2021/08/29 00:53:54;;;;;;;13.48;4.97;;;16.60;99.90;;;;;;5074804;28;20024;-78
2021/08/29 00:56:21;;;;;;;13.10;5.22;;;16.50;99.90;;;;;;5075191;28;20025;-78
2021/08/29 00:58:48;;;;;;;12.27;5.07;;;16.30;99.90;;;;;;5074875;28;20032;-78
2021/08/29 01:01:17;;;;;;;13.00;4.80;;;16.40;99.90;;;;;;5074739;28;20104;-78
2021/08/29 01:03:42;;;;;;;15.88;6.20;;;16.30;99.90;;;;;;5074485;28;20576;-77
2021/08/29 01:06:17;;;;;;;;;;;15.90;99.90;;;;;;5074957;28;20059;-78
2021/08/29 01:08:45;;;;;;;15.63;5.90;;;15.70;99.90;;;;;;5090177;28;19904;-78
2021/08/29 01:11:24;;;;;;;14.75;6.45;;;15.70;99.90;;;;;;5074436;28;20170;-77
2021/08/29 01:13:52;;;;;;;12.73;6.40;;;15.70;99.90;;;;;;5074482;28;20055;-78
2021/08/29 01:16:20;;;;;;;12.02;5.38;;;15.70;99.90;;;;;;5074393;28;20028;-78
2021/08/29 01:18:53;;;;;;;16.20;7.80;;;15.70;99.90;;;;;;5074318;28;20031;-79
2021/08/29 01:21:25;;;;;;;21.10;6.78;;;15.50;99.90;;;;;;5074272;28;20403;-77
2021/08/29 01:23:56;;;;;;;16.73;6.90;;;15.40;99.90;;;;;;5072775;28;20024;-77
2021/08/29 01:26:27;;;;;;;14.48;6.32;;;15.50;99.90;;;;;;5074642;28;20029;-78
2021/08/29 01:28:56;;;;;;;15.02;7.07;;;15.60;99.90;;;;;;5072588;28;20082;-78
2021/08/29 01:31:25;;;;;;;16.25;6.93;;;15.60;99.90;;;;;;5073990;28;20048;-78
2021/08/29 01:33:51;;;;;;;15.35;7.22;;;15.50;99.90;;;;;;5074043;28;20023;-78
2021/08/29 01:36:18;;;;;;;16.17;7.30;;;15.60;99.90;;;;;;5074158;28;20077;-79
2021/08/29 01:38:46;;;;;;;16.30;7.72;;;15.60;99.90;;;;;;5072648;28;20021;-78
2021/08/29 01:41:15;;;;;;;16.50;7.65;;;15.60;99.90;;;;;;5073839;28;20021;-77
2021/08/29 01:43:42;;;;;;;14.88;7.47;;;15.60;99.90;;;;;;5073890;28;20540;-78
2021/08/29 01:46:09;;;;;;;15.65;7.93;;;15.60;99.90;;;;;;5073755;28;20086;-78
2021/08/29 01:48:38;;;;;;;19.40;8.07;;;15.50;99.90;;;;;;5073900;28;20118;-77
2021/08/29 01:51:04;;;;;;;14.93;6.75;;;15.60;99.90;;;;;;5073629;28;20512;-77
2021/08/29 01:53:30;;;;;;;;;;;15.50;99.90;;;;;;5074061;28;20029;-77
2021/08/29 01:55:55;;;;;;;13.98;6.97;;;15.50;99.90;;;;;;5072362;28;19912;-78
2021/08/29 01:58:21;;;;;;;;;;;15.60;99.90;;;;;;5074002;28;20016;-78
2021/08/29 02:00:53;;;;;;;16.17;7.47;;;15.80;99.90;;;;;;5073851;28;20326;-78
2021/08/29 02:03:20;;;;;;;16.17;7.43;;;15.70;99.90;;;;;;5073361;28;20131;-78
2021/08/29 02:05:48;;;;;;;13.57;6.63;;;15.70;99.90;;;;;;5073530;28;20071;-78
2021/08/29 02:08:16;;;;;;;18.33;7.63;;;15.60;99.90;;;;;;5073492;28;20357;-78
2021/08/29 02:10:47;;;;;;;16.27;7.50;;;15.40;99.90;;;;;;5073338;28;20039;-78
2021/08/29 02:13:15;;;;;;;13.93;7.22;;;15.30;99.90;;;;;;5073591;28;20016;-78
2021/08/29 02:15:51;;;;;;;16.58;7.65;;;15.20;99.90;;;;;;5073335;28;20073;-78
2021/08/29 02:18:19;;;;;;;16.65;7.80;;;15.20;99.90;;;;;;5073616;28;20484;-77
2021/08/29 02:20:48;;;;;;;13.02;6.55;;;15.20;99.90;;;;;;5073331;28;20048;-77
2021/08/29 02:23:16;;;;;;;14.82;6.35;;;15.20;99.90;;;;;;5073318;28;20099;-79
2021/08/29 02:25:48;;;;;;;13.77;6.97;;;15.30;99.90;;;;;;5073189;28;20017;-78
2021/08/29 02:28:15;;;;;;;13.57;6.63;;;15.20;99.90;;;;;;5073500;28;20021;-78
2021/08/29 02:30:42;;;;;;;16.20;7.00;;;15.20;99.90;;;;;;5073101;28;20025;-77
2021/08/29 02:33:11;;;;;;;16.08;7.40;;;15.40;99.90;;;;;;5073267;28;20028;-77
2021/08/29 02:35:40;;;;;;;14.90;6.72;;;15.40;99.90;;;;;;5073154;28;20467;-78
2021/08/29 02:38:06;;;;;;;15.55;7.18;;;15.30;99.90;;;;;;5073101;28;20028;-77
2021/08/29 02:40:44;;;;;;;16.13;6.97;;;15.20;99.90;;;;;;5073256;28;20103;-78
2021/08/29 02:43:11;;;;;;;15.70;7.20;;;15.40;99.90;;;;;;5073197;28;20032;-78
2021/08/29 02:45:41;;;;;;;18.00;7.38;;;15.50;99.90;;;;;;5073053;28;20070;-78
2021/08/29 02:48:07;;;;;;;14.48;7.28;;;15.40;99.90;;;;;;5073368;28;20384;-78
2021/08/29 02:50:33;;;;;;;;;;;15.50;99.90;;;;;;5073396;28;20033;-79
2021/08/29 02:52:59;;;;;;;13.20;6.70;;;15.40;99.90;;;;;;5073111;28;20437;-78
2021/08/29 02:55:26;;;;;;;16.27;7.47;;;15.30;99.90;;;;;;5072986;28;20066;-77
2021/08/29 02:58:00;;;;;;;13.60;6.82;;;15.20;99.90;;;;;;5073001;28;20023;-80
2021/08/29 03:00:26;;;;;;;17.10;8.13;;;15.10;99.90;;;;;;5073166;28;20020;-81
2021/08/29 03:02:52;;;;;;;16.05;7.78;;;15.00;99.90;;;;;;5076409;28;20072;-80
2021/08/29 03:05:18;;;;;;;;;;;15.10;99.90;;;;;;5075805;28;20439;-80
2021/08/29 03:07:44;;;;;;;14.68;7.63;;;15.20;99.90;;;;;;5077264;28;19942;-80
2021/08/29 03:10:10;;;;;;;;;;;15.30;99.90;;;;;;5077143;28;20108;-80
2021/08/29 03:12:36;;;;;;;16.33;7.97;;;15.40;99.90;;;;;;5076927;28;19954;-81
2021/08/29 03:15:02;;;;;;;;;;;15.20;99.90;;;;;;5077053;28;20484;-80
2021/08/29 03:17:28;;;;;;;17.20;8.30;;;15.20;99.90;;;;;;5076617;28;19947;-81
2021/08/29 03:19:55;;;;;;;15.30;7.10;;;15.10;99.90;;;;;;5076556;28;20479;-80
2021/08/29 03:22:21;;;;;;;15.02;7.40;;;15.10;99.90;;;;;;5076666;28;20109;-80
2021/08/29 03:24:47;;;;;;;;;;;15.00;99.90;;;;;;5076954;28;20059;-80
2021/08/29 03:27:13;;;;;;;15.90;7.00;;;15.20;99.90;;;;;;5076459;28;20280;-81
2021/08/29 03:29:38;;;;;;;;;;;15.00;99.90;;;;;;5077304;28;20017;-80
2021/08/29 03:32:06;;;;;;;16.02;7.25;;;14.80;99.90;;;;;;5076500;28;19977;-79
2021/08/29 03:34:35;;;;;;;15.63;7.82;;;14.80;99.90;;;;;;5075070;28;20054;-80
2021/08/29 03:37:05;;;;;;;18.83;8.15;;;14.70;99.90;;;;;;5076260;28;20016;-80
2021/08/29 03:39:31;;;;;;;15.65;7.57;;;14.50;99.90;;;;;;5076204;28;20017;-81
2021/08/29 03:41:58;;;;;;;;;;;14.70;99.90;;;;;;5076583;28;20392;-81
2021/08/29 03:44:25;;;;;;;15.93;7.03;;;14.70;99.90;;;;;;5076243;28;19954;-81
2021/08/29 03:46:52;;;;;;;16.20;7.40;;;14.70;99.90;;;;;;5076065;28;20059;-81
2021/08/29 03:49:18;;;;;;;19.00;7.32;;;14.70;99.90;;;;;;5076162;28;20428;-81
2021/08/29 03:51:45;;;;;;;;;;;14.60;99.90;;;;;;5076418;28;20161;-80
2021/08/29 03:54:13;;;;;;;12.40;6.57;;;14.50;99.90;;;;;;5091607;28;19905;-80
2021/08/29 03:56:40;;;;;;;14.63;7.60;;;14.60;99.90;;;;;;5075920;28;20012;-81
2021/08/29 03:59:07;;;;;;;13.70;7.15;;;14.50;99.90;;;;;;5075870;28;20506;-79
2021/08/29 04:01:33;;;;;;;14.80;7.15;;;14.60;99.90;;;;;;5075913;28;20020;-81
2021/08/29 04:03:58;;;;;;;;;;;14.40;99.90;;;;;;5075991;28;20182;-80
2021/08/29 04:06:32;;;;;;;14.00;6.88;;;14.40;99.90;;;;;;5075952;28;19912;-80
2021/08/29 04:09:04;;;;;;;14.57;6.65;;;14.50;99.90;;;;;;5076013;28;20021;-81
2021/08/29 04:11:30;;;;;;;14.05;6.80;;;14.40;99.90;;;;;;5075703;28;20032;-79
2021/08/29 04:13:57;;;;;;;13.50;7.20;;;14.50;99.90;;;;;;5074450;28;20027;-80
2021/08/29 04:16:23;;;;;;;12.88;6.75;;;14.50;99.90;;;;;;5075607;28;20025;-81
2021/08/29 04:18:50;;;;;;;14.13;6.05;;;14.50;99.90;;;;;;5075909;28;20028;-80
2021/08/29 04:21:18;;;;;;;15.23;6.38;;;14.50;99.90;;;;;;5075474;28;20021;-81
2021/08/29 04:23:44;;;;;;;12.63;6.75;;;14.40;99.90;;;;;;5075591;28;20516;-80
2021/08/29 04:26:11;;;;;;;13.95;6.28;;;14.30;99.90;;;;;;5075344;28;20097;-81
2021/08/29 04:28:37;;;;;;;13.60;6.35;;;14.30;99.90;;;;;;5075350;28;20439;-81
2021/08/29 04:31:10;;;;;;;16.30;7.47;;;14.40;99.90;;;;;;5075179;28;20449;-80
2021/08/29 04:33:36;;;;;;;14.10;6.25;;;14.40;99.90;;;;;;5075372;28;20028;-81
2021/08/29 04:36:04;;;;;;;13.27;6.43;;;14.30;99.90;;;;;;5075215;28;20024;-81
2021/08/29 04:38:30;;;;;;;16.20;7.15;;;14.50;99.90;;;;;;5075132;28;20017;-81
2021/08/29 04:40:56;;;;;;;;;;;14.60;99.90;;;;;;5075502;28;20085;-80
2021/08/29 04:43:21;;;;;;;16.38;7.38;;;14.50;99.90;;;;;;5075053;28;20357;-80
2021/08/29 04:45:47;;;;;;;15.48;7.30;;;14.40;99.90;;;;;;5075015;28;20020;-80
2021/08/29 04:48:13;;;;;;;11.73;6.43;;;14.20;99.90;;;;;;5075173;28;20028;-81
2021/08/29 04:50:39;;;;;;;15.65;6.80;;;14.20;99.90;;;;;;5074881;28;20032;-81
2021/08/29 04:53:04;;;;;;;;;;;14.30;99.90;;;;;;5075326;28;20484;-81
2021/08/29 04:55:30;;;;;;;14.70;6.20;;;14.20;99.90;;;;;;5075002;28;19912;-79
2021/08/29 04:57:56;;;;;;;13.40;6.20;;;14.20;99.90;;;;;;5074793;28;20108;-79
2021/08/29 05:00:22;;;;;;;20.48;7.00;;;14.10;99.90;;;;;;5074696;28;20036;-80
2021/08/29 05:02:48;;;;;;;11.57;6.47;;;14.10;99.90;;;;;;5074299;28;20036;-81
2021/08/29 05:05:13;;;;;;;12.80;6.45;;;14.20;99.90;;;;;;5074910;28;20118;-81
2021/08/29 05:07:39;;;;;;;13.98;6.07;;;14.10;99.90;;;;;;5074580;28;20407;-81
2021/08/29 05:10:05;;;;;;;10.20;4.80;;;13.90;99.90;;;;;;5074387;28;20564;-81
2021/08/29 05:12:31;;;;;;;10.27;5.50;;;13.90;99.90;;;;;;5074625;28;20100;-81
2021/08/29 05:14:57;;;;;;;;;;;14.10;99.90;;;;;;5075135;28;20044;-80
2021/08/29 05:17:22;;;;;;;;;;;14.00;99.90;;;;;;5074795;28;19959;-81
2021/08/29 05:19:48;;;;;;;;;;;14.00;99.90;;;;;;5074758;28;19904;-81
2021/08/29 05:22:13;;;;;;;;;;;13.90;99.90;;;;;;5074661;28;19999;-80
2021/08/29 05:24:39;;;;;;;11.32;5.85;;;13.90;99.90;;;;;;5073840;28;20053;-81
2021/08/29 05:27:05;;;;;;;11.15;5.53;;;13.90;99.90;;;;;;5074170;28;20138;-80
2021/08/29 05:29:31;;;;;;;;;;;14.00;99.90;;;;;;5074841;28;20048;-80
2021/08/29 05:31:56;;;;;;;11.48;4.70;;;14.00;99.90;;;;;;5074007;28;19920;-80
2021/08/29 05:34:22;;;;;;;9.02;4.72;;;14.20;99.90;;;;;;5074003;28;20549;-80
2021/08/29 05:36:48;;;;;;;11.77;5.25;;;14.50;99.90;;;;;;5073991;28;20032;-80
2021/08/29 05:39:13;;;;;;;15.23;5.57;;;14.30;99.90;;;;;;5073943;28;20021;-80
2021/08/29 05:41:39;;;;;;;12.32;5.18;;;14.20;99.90;;;;;;5072654;28;20068;-82
2021/08/29 05:44:05;;;;;;;9.65;5.13;;;14.00;99.90;;;;;;5073875;28;20492;-81
2021/08/29 05:46:31;;;;;;;;;;;14.00;99.90;;;;;;5074208;28;20037;-80
2021/08/29 05:48:56;;;;;;;10.68;4.20;;;14.30;99.90;;;;;;5073896;28;19912;-81
2021/08/29 05:51:22;;;;;;;9.50;4.10;;;14.50;99.90;;;;;;5073953;28;20095;-82
2021/08/29 05:53:48;;;;;;;11.90;4.78;;;14.60;99.90;;;;;;5073840;28;20455;-81
2021/08/29 05:56:14;;;;;;;11.70;4.40;;;14.60;99.90;;;;;;5073633;28;20040;-79
2021/08/29 05:58:39;;;;;;;10.75;3.85;;;14.60;99.90;;;;;;5073610;28;20056;-80
2021/08/29 06:01:05;;;;;;;9.60;4.45;;;14.60;99.90;;;;;;5073547;28;20511;-80
2021/08/29 06:03:31;;;;;;;9.55;4.10;;;14.50;99.90;;;;;;5073530;28;20121;-80
2021/08/29 06:05:58;;;;;;;11.55;4.50;;;14.70;99.90;;;;;;5073480;28;20028;-81
2021/08/29 06:08:24;;;;;;;8.93;4.20;;;14.70;99.90;;;;;;5073429;28;20029;-81
2021/08/29 06:10:49;;;;;;;;;;;15.00;99.90;;;;;;5073797;28;20031;-81
2021/08/29 06:13:15;;;;;;;10.48;4.10;;;15.10;99.90;;;;;;5073426;28;19904;-80
2021/08/29 06:15:41;;;;;;;9.85;4.05;;;15.10;99.90;;;;;;5073415;28;20024;-80
2021/08/29 06:18:07;;;;;;;10.18;4.25;;;15.10;99.90;;;;;;5073368;28;20025;-81
2021/08/29 06:20:32;;;;;;;;;;;15.40;99.90;;;;;;5073746;28;20070;-80
2021/08/29 06:22:58;;;;;;;9.45;4.35;;;15.50;99.90;;;;;;5073661;28;19904;-80
2021/08/29 06:25:24;;;;;;;;;;;16.10;99.90;;;;;;5073655;28;20392;-80
2021/08/29 06:27:49;;;;;;;12.00;4.00;;;16.60;99.90;;;;;;5073260;28;19957;-81
2021/08/29 06:30:15;;;;;;;12.02;4.53;;;17.00;99.90;;;;;;5073538;28;20028;-81
2021/08/29 06:32:41;;;;;;;9.80;4.45;;;17.50;99.90;;;;;;5073177;28;20048;-82
2021/08/29 06:35:07;;;;;;;9.77;4.03;;;17.80;99.90;;;;;;5073118;28;20052;-79
2021/08/29 06:37:33;;;;;;;11.90;4.20;;;18.30;99.90;;;;;;5072732;28;20028;-78
2021/08/29 06:39:59;;;;;;;10.80;4.30;;;18.70;99.90;;;;;;5073176;28;20021;-79
2021/08/29 06:42:24;;;;;;;12.05;4.13;;;18.60;99.90;;;;;;5073336;28;20021;-79
2021/08/29 06:44:50;;;;;;;11.00;4.30;;;18.60;99.90;;;;;;5073125;28;20027;-79
2021/08/29 06:47:16;;;;;;;10.90;4.35;;;19.50;99.90;;;;;;5073107;28;20105;-78
2021/08/29 06:49:41;;;;;;;11.30;4.15;;;19.90;99.90;;;;;;5073044;28;20025;-79
2021/08/29 06:52:07;;;;;;;12.98;4.22;;;19.70;99.90;;;;;;5073307;28;20067;-79
2021/08/29 06:54:33;;;;;;;11.68;4.93;;;20.00;99.90;;;;;;5073185;28;20016;-78
2021/08/29 06:56:59;;;;;;;16.70;5.15;;;20.20;99.90;;;;;;5072997;28;20012;-79
2021/08/29 06:59:24;;;;;;;17.25;5.43;;;20.40;99.90;;;;;;5072806;28;20053;-78
2021/08/29 07:01:50;;;;;;;16.42;5.57;;;20.50;99.90;;;;;;5072866;28;20059;-79
2021/08/29 07:04:16;;;;;;;14.23;4.57;;;20.50;99.90;;;;;;5072728;28;20099;-79
2021/08/29 07:06:41;;;;;;;12.50;4.40;;;20.10;99.90;;;;;;5072996;28;20365;-78
2021/08/29 07:09:07;;;;;;;16.73;4.82;;;20.00;99.90;;;;;;5072895;28;20060;-79
2021/08/29 07:11:33;;;;;;;16.27;4.45;;;20.10;99.90;;;;;;5072810;28;20029;-79
2021/08/29 07:13:59;;;;;;;14.10;4.40;;;20.50;99.90;;;;;;5071596;28;20365;-79
2021/08/29 07:16:25;;;;;;;15.02;4.60;;;20.90;99.90;;;;;;5072829;28;20024;-79
2021/08/29 07:18:51;;;;;;;17.67;5.03;;;21.00;99.90;;;;;;5072774;28;20017;-78
2021/08/29 07:21:16;;;;;;;14.75;4.30;;;21.20;99.90;;;;;;5072706;28;20479;-78
2021/08/29 07:23:42;;;;;;;12.90;4.40;;;21.30;99.90;;;;;;5072735;28;20392;-79
2021/08/29 07:26:13;;;;;;;12.45;3.72;;;21.70;99.90;;;;;;5072622;28;20492;-79
2021/08/29 07:28:43;;;;;;;12.82;4.13;;;21.80;99.90;;;;;;5071162;28;20119;-79
2021/08/29 07:31:09;;;;;;;14.93;4.10;;;21.90;99.90;;;;;;5071302;28;20024;-79
2021/08/29 07:33:35;;;;;;;13.25;3.85;;;22.40;99.90;;;;;;5072724;28;20469;-79
2021/08/29 07:36:01;;;;;;;13.93;3.80;;;22.80;99.90;;;;;;5072551;28;20027;-79
2021/08/29 07:38:27;;;;;;;13.20;3.88;;;23.20;99.90;;;;;;5072591;28;20023;-79
2021/08/29 07:40:52;;;;;;;13.18;3.85;;;23.40;99.90;;;;;;5071342;28;20020;-79
2021/08/29 07:43:18;;;;;;;10.85;3.42;;;24.00;99.90;;;;;;5072524;28;20046;-79
2021/08/29 07:45:44;;;;;;;16.08;4.20;;;24.70;98.90;;;;;;5072505;28;20021;-80
2021/08/29 07:48:10;;;;;;;14.13;4.20;;;24.70;97.70;;;;;;5074769;28;20108;-79
2021/08/29 07:50:36;;;;;;;11.18;3.88;;;24.80;97.40;;;;;;5074748;28;20025;-79
2021/08/29 07:53:02;;;;;;;14.18;3.92;;;25.00;97.30;;;;;;5074712;28;20028;-79
2021/08/29 07:55:28;;;;;;;11.43;3.72;;;24.90;96.80;;;;;;5075947;28;20043;-79
2021/08/29 07:57:54;;;;;;;13.75;4.05;;;25.50;96.20;;;;;;5074601;28;20032;-79
2021/08/29 08:00:20;;;;;;;12.52;4.10;;;25.80;95.30;;;;;;5074521;28;20070;-79
2021/08/29 08:02:45;;;;;;;13.57;4.13;;;26.00;95.00;;;;;;5075949;28;20116;-79
2021/08/29 08:05:11;;;;;;;14.90;4.32;;;25.80;94.30;;;;;;5074207;28;20039;-80
2021/08/29 08:07:37;;;;;;;12.77;4.00;;;25.60;94.00;;;;;;5074429;28;20028;-79
2021/08/29 08:10:05;;;;;;;14.82;4.30;;;25.50;94.20;;;;;;5075610;28;20077;-79
2021/08/29 08:12:31;;;;;;;11.82;3.58;;;26.00;94.40;;;;;;5075571;28;20028;-78
2021/08/29 08:14:57;;;;;;;11.93;3.90;;;26.00;94.70;;;;;;5075616;28;20017;-79
2021/08/29 08:17:23;;;;;;;13.95;3.83;;;26.50;93.60;;;;;;5075589;28;20024;-80
2021/08/29 08:19:48;;;;;;;13.25;3.83;;;27.50;91.10;;;;;;5075586;28;20016;-80
2021/08/29 08:22:15;;;;;;;11.18;3.92;;;28.80;88.30;;;;;;5075449;28;20025;-80
2021/08/29 08:24:41;;;;;;;11.32;3.55;;;28.60;86.40;;;;;;5075385;28;20060;-79
2021/08/29 08:27:07;;;;;;;11.27;3.85;;;29.10;83.70;;;;;;5075380;28;20027;-80
2021/08/29 08:29:32;;;;;;;10.52;3.72;;;29.60;81.40;;;;;;5074036;28;20070;-80
2021/08/29 08:31:58;;;;;;;12.32;3.92;;;29.90;79.20;;;;;;5073927;28;20032;-81
2021/08/29 08:34:24;;;;;;;10.50;3.53;;;29.70;78.10;;;;;;5075505;28;20020;-80
2021/08/29 08:36:50;;;;;;;14.00;4.28;;;30.10;76.40;;;;;;5075192;28;20028;-80
2021/08/29 08:39:16;;;;;;;13.30;4.10;;;30.80;73.30;;;;;;5075465;28;20024;-79
2021/08/29 08:41:41;;;;;;;11.95;4.13;;;30.10;74.60;;;;;;5075066;28;20024;-81
2021/08/29 08:44:07;;;;;;;13.00;3.88;;;29.50;76.10;;;;;;5075165;28;20024;-80
2021/08/29 08:46:34;;;;;;;12.07;3.70;;;29.40;76.40;;;;;;5074975;28;20029;-81
2021/08/29 08:49:02;;;;;;;12.73;3.55;;;30.00;75.50;;;;;;5074959;28;20081;-80
2021/08/29 08:51:30;;;;;;;10.32;3.25;;;30.20;72.10;;;;;;5074828;28;20021;-79
2021/08/29 08:53:59;;;;;;;14.30;3.78;;;30.50;69.40;;;;;;5073588;28;20021;-80
2021/08/29 08:56:26;;;;;;;11.73;3.40;;;29.40;71.60;;;;;;5075056;28;20024;-80
2021/08/29 08:59:00;;;;;;;9.02;3.17;;;29.10;71.80;;;;;;5074173;28;20495;-79
2021/08/29 09:01:25;;;;;;;10.33;3.10;;;28.30;73.80;;;;;;5074880;28;20543;-79
2021/08/29 09:03:52;;;;;;;10.85;3.50;;;28.20;74.50;;;;;;5072902;28;20181;-80
2021/08/29 09:06:18;;;;;;;9.88;3.40;;;27.80;77.60;;;;;;5074653;28;20021;-80
2021/08/29 09:08:44;;;;;;;10.10;3.60;;;29.50;73.90;;;;;;5074502;28;20387;-80
2021/08/29 09:11:10;;;;;;;10.40;3.42;;;29.30;71.00;;;;;;5074335;28;20107;-79
2021/08/29 09:13:48;;;;;;;13.23;3.63;;;28.50;71.40;;;;;;5074451;28;20021;-79
2021/08/29 09:16:22;;;;;;;15.77;3.90;;;27.50;74.40;;;;;;5074234;28;20045;-79
2021/08/29 09:18:48;;;;;;;11.02;3.53;;;30.50;71.20;;;;;;5074287;28;20091;-80
2021/08/29 09:21:34;;;;;;;9.40;3.33;;;32.60;64.10;;;;;;5074675;28;20032;-80
2021/08/29 09:24:06;;;;;;;10.20;3.13;;;32.10;61.00;;;;;;5072635;28;20024;-79
2021/08/29 09:26:32;;;;;;;11.82;3.38;;;30.00;64.10;;;;;;5074189;28;20472;-79
2021/08/29 09:28:59;;;;;;;12.88;3.58;;;28.40;68.70;;;;;;5074228;28;20032;-79
2021/08/29 09:31:42;;;;;;;10.25;3.05;;;28.00;72.60;;;;;;5074033;28;20107;-79
2021/08/29 09:34:08;;;;;;;10.52;3.05;;;27.60;71.80;;;;;;5074432;28;20021;-80
2021/08/29 09:36:34;;;;;;;11.40;3.40;;;26.70;72.20;;;;;;5072765;28;20021;-78
2021/08/29 09:39:14;;;;;;;12.82;3.75;;;27.10;73.10;;;;;;5073956;28;20078;-79
2021/08/29 09:41:41;;;;;;;12.32;3.80;;;29.30;67.90;;;;;;5074206;28;20404;-79
2021/08/29 09:44:10;;;;;;;10.73;3.63;;;27.60;69.10;;;;;;5073848;28;20028;-80
2021/08/29 09:46:56;;;;;;;13.73;3.50;;;29.80;68.50;;;;;;5072545;28;20269;-81
2021/08/29 09:49:32;;;;;;;10.95;3.63;;;34.50;58.50;;;;;;5072199;28;20082;-81
2021/08/29 09:51:59;;;;;;;9.43;3.00;;;37.00;49.70;;;;;;5073681;28;20119;-80
2021/08/29 09:54:36;;;;;;;9.77;3.15;;;35.10;51.10;;;;;;5073684;28;20020;-80
2021/08/29 09:57:09;;;;;;;11.23;3.33;;;36.20;48.50;;;;;;5074143;28;20024;-80
2021/08/29 09:59:47;;;;;;;9.77;3.15;;;32.50;50.60;;;;;;5072113;28;20025;-79
2021/08/29 10:02:25;;;;;;;11.15;3.30;;;30.90;55.10;;;;;;5073860;28;20427;-80
2021/08/29 10:05:29;;;;;;;11.70;3.50;;;31.40;55.00;;;;;;5073124;28;20041;-79
2021/08/29 10:07:57;;;;;;;9.15;3.05;;;32.40;52.40;;;;;;5051641;28;20090;-79
2021/08/29 10:10:28;;;;;;;10.48;3.40;;;30.70;54.40;;;;;;5050897;28;20115;-80
2021/08/29 10:12:55;;;;;;;6.72;2.65;;;32.70;53.00;;;;;;5062953;28;20028;-80
2021/08/29 10:15:21;;;;;;;10.98;3.30;;;31.00;52.40;;;;;;5073413;28;20021;-79
2021/08/29 10:17:50;;;;;;;10.40;3.17;;;29.90;54.50;;;;;;5073602;28;20016;-80
2021/08/29 10:20:17;;;;;;;10.02;2.88;;;29.90;55.00;;;;;;5073329;28;20480;-79
2021/08/29 10:22:44;;;;;;;8.45;3.10;;;29.30;55.60;;;;;;5073339;28;20472;-80
2021/08/29 10:25:10;;;;;;;9.27;2.90;;;32.30;51.40;;;;;;5072011;28;20392;-79
2021/08/29 10:27:41;;;;;;;10.75;3.45;;;33.00;48.40;;;;;;5073359;28;20017;-81
2021/08/29 10:30:09;;;;;;;8.38;3.50;;;37.80;45.80;;;;;;5073339;28;20021;-81
2021/08/29 10:32:45;;;;;;;9.80;4.18;;;40.10;43.40;;;;;;5073265;28;20024;-82
2021/08/29 10:35:15;;;;;;;10.82;4.00;;;41.60;41.20;;;;;;5073693;28;20069;-81
2021/08/29 10:37:44;;;;;;;10.23;4.25;;;41.80;40.40;;;;;;5073586;28;20028;-81
2021/08/29 10:40:12;;;;;;;10.60;4.53;;;42.20;39.50;;;;;;5071820;28;20101;-81
2021/08/29 10:42:43;;;;;;;10.73;5.05;;;40.80;37.70;;;;;;5073110;28;20016;-82
2021/08/29 10:45:09;;;;;;;9.38;3.90;;;41.60;38.90;;;;;;5073189;28;20028;-80
2021/08/29 10:47:37;;;;;;;10.55;5.30;;;40.60;37.90;;;;;;5073264;28;20016;-81
2021/08/29 10:50:09;;;;;;;9.73;4.13;;;39.50;41.70;;;;;;5073093;28;20491;-80
2021/08/29 10:52:38;;;;;;;10.05;4.18;;;41.20;38.90;;;;;;5071537;28;20028;-81
2021/08/29 10:55:09;;;;;;;13.00;8.27;;;42.40;38.00;;;;;;5073021;28;20096;-81
2021/08/29 10:57:40;;;;;;;17.65;11.23;;;43.40;38.10;;;;;;5072987;28;20032;-80
2021/08/29 11:00:07;;;;;;;9.35;3.30;;;38.70;38.40;;;;;;5071466;28;20021;-80
2021/08/29 11:02:39;;;;;;;8.23;2.92;;;35.50;41.70;;;;;;5072701;28;20033;-79
2021/08/29 11:05:06;;;;;;;11.25;3.83;;;33.90;44.50;;;;;;5072943;28;20037;-80
2021/08/29 11:07:58;;;;;;;8.40;3.80;;;37.40;42.90;;;;;;5071563;28;20017;-81
2021/08/29 11:10:39;;;;;;;;;;;40.10;40.10;;;;;;5072175;28;20033;-81
2021/08/29 11:13:34;;;;;;;21.70;4.70;;;41.20;38.70;;;;;;5071636;28;19948;-81
2021/08/29 11:16:11;;;;;;;10.40;2.97;;;38.10;39.80;;;;;;5072867;28;20033;-80
2021/08/29 11:18:58;;;;;;;10.32;3.10;;;35.40;42.50;;;;;;5072899;28;20115;-80
2021/08/29 11:21:25;;;;;;;8.98;2.90;;;32.60;46.00;;;;;;5072723;28;20103;-80
2021/08/29 11:23:51;;;;;;;9.18;2.92;;;31.20;47.90;;;;;;5075943;28;20132;-80
2021/08/29 11:26:30;;;;;;;10.38;2.90;;;29.80;49.80;;;;;;5076836;28;20456;-79
2021/08/29 11:28:57;;;;;;;10.70;3.20;;;29.30;51.70;;;;;;5076646;28;20016;-80
2021/08/29 11:31:52;;;;;;;10.40;3.58;;;31.90;49.70;;;;;;5076456;28;20099;-81
2021/08/29 11:34:19;;;;;;;8.68;3.35;;;36.60;44.20;;;;;;5076764;28;20021;-81
2021/08/29 11:36:46;;;;;;;10.43;4.13;;;38.00;41.90;;;;;;5075088;28;20489;-81
2021/08/29 11:39:35;;;;;;;10.27;3.50;;;41.40;38.80;;;;;;5076328;28;20361;-81
2021/08/29 11:42:15;;;;;;;8.32;2.90;;;38.70;38.70;;;;;;5076322;28;20385;-80
2021/08/29 11:44:41;;;;;;;10.88;3.08;;;34.30;43.60;;;;;;5076365;28;20027;-79
2021/08/29 11:47:07;;;;;;;10.55;3.00;;;31.20;47.80;;;;;;5074850;28;20074;-79
2021/08/29 11:49:33;;;;;;;7.70;3.20;;;29.70;50.60;;;;;;5076069;28;20021;-81
2021/08/29 11:51:59;;;;;;;10.55;3.70;;;35.60;47.30;;;;;;5076107;28;20032;-81
2021/08/29 11:54:25;;;;;;;9.30;3.25;;;39.70;40.80;;;;;;5076281;28;20024;-81
2021/08/29 11:56:51;;;;;;;19.15;3.53;;;40.00;37.70;;;;;;5076049;28;20051;-80
2021/08/29 11:59:28;;;;;;;9.25;3.00;;;35.90;41.70;;;;;;5074626;28;20396;-80
2021/08/29 12:01:54;;;;;;;10.43;3.40;;;32.30;45.20;;;;;;5076018;28;20027;-81
2021/08/29 12:04:20;;;;;;;9.13;2.60;;;37.20;43.70;;;;;;5075635;28;20053;-81
2021/08/29 12:06:57;;;;;;;9.48;2.65;;;36.40;41.10;;;;;;5074484;28;20484;-81
2021/08/29 12:09:28;;;;;;;10.00;2.80;;;33.10;44.40;;;;;;5075841;28;20032;-80
2021/08/29 12:11:56;;;;;;;7.65;2.53;;;31.20;47.60;;;;;;5075715;28;20028;-79
2021/08/29 12:14:29;;;;;;;8.00;3.33;;;30.30;48.90;;;;;;5075686;28;20032;-80
2021/08/29 12:17:00;;;;;;;25.85;20.23;;;29.20;50.20;;;;;;5075664;28;20029;-80
2021/08/29 12:19:35;;;;;;;11.43;7.25;;;34.00;48.70;;;;;;5074309;28;20031;-81
2021/08/29 12:22:04;;;;;;;8.38;3.65;;;41.70;39.90;;;;;;5075816;28;20024;-81
2021/08/29 12:24:33;;;;;;;8.90;3.70;;;41.80;37.20;;;;;;5075331;28;20029;-82
2021/08/29 12:27:12;;;;;;;8.65;3.80;;;45.60;35.70;;;;;;5075500;28;20082;-82
2021/08/29 12:29:47;;;;;;;8.23;3.72;;;46.00;35.10;;;;;;5075376;28;20533;-81
2021/08/29 12:32:18;;;;;;;7.53;3.08;;;45.20;35.20;;;;;;5075329;28;20024;-81
2021/08/29 12:35:10;;;;;;;6.75;2.72;;;41.30;36.20;;;;;;5074267;28;20029;-80
2021/08/29 12:37:47;;;;;;;11.47;3.50;;;36.30;40.50;;;;;;5074147;28;20032;-80
2021/08/29 12:40:19;;;;;;;7.15;2.80;;;33.70;43.50;;;;;;5075364;28;20028;-80
2021/08/29 12:42:46;;;;;;;8.32;2.70;;;32.30;44.70;;;;;;5075398;28;20039;-80
2021/08/29 12:45:15;;;;;;;8.07;2.65;;;31.00;46.10;;;;;;5075099;28;20027;-80
2021/08/29 12:47:45;;;;;;;9.40;3.00;;;31.30;45.50;;;;;;5075248;28;20031;-80
2021/08/29 12:50:15;;;;;;;7.30;2.50;;;32.40;46.40;;;;;;5075421;28;20075;-80
2021/08/29 12:52:51;;;;;;;10.00;3.13;;;33.00;43.60;;;;;;5075359;28;20023;-80